createdAt,value
2022-11-22T00:00:42.381Z,2.85
2022-11-22T00:03:09.786Z,2.33
2022-11-22T00:05:37.414Z,2.42
2022-11-22T00:08:04.841Z,2.03
2022-11-22T00:10:32.301Z,2.70
2022-11-22T00:12:59.634Z,2.13
2022-11-22T00:15:26.813Z,1.80
2022-11-22T00:17:53.866Z,1.98
2022-11-22T00:20:21.129Z,1.88
2022-11-22T00:22:48.828Z,1.98
2022-11-22T00:25:15.997Z,2.25
2022-11-22T00:27:43.336Z,1.75
2022-11-22T00:30:10.639Z,1.95
2022-11-22T00:32:37.668Z,1.73
2022-11-22T00:35:05.207Z,1.25
2022-11-22T00:37:32.429Z,1.95
2022-11-22T00:39:59.397Z,1.70
2022-11-22T00:42:26.376Z,1.52
2022-11-22T00:44:53.347Z,2.13
2022-11-22T00:47:20.345Z,2.10
2022-11-22T00:49:47.305Z,2.25
2022-11-22T00:52:14.292Z,1.58
2022-11-22T00:54:41.530Z,1.55
2022-11-22T00:57:08.550Z,1.77
2022-11-22T00:59:35.499Z,2.22
2022-11-22T01:02:02.563Z,1.98
2022-11-22T01:04:29.509Z,1.67
2022-11-22T01:06:56.506Z,1.50
2022-11-22T01:09:24.373Z,1.60
2022-11-22T01:11:51.740Z,1.30
2022-11-22T01:14:19.881Z,1.38
2022-11-22T01:16:47.670Z,1.48
2022-11-22T01:19:14.821Z,1.40
2022-11-22T01:21:41.908Z,1.67
2022-11-22T01:24:08.975Z,1.30
2022-11-22T01:26:35.962Z,1.38
2022-11-22T01:29:03.403Z,1.52
2022-11-22T01:31:30.481Z,1.73
2022-11-22T01:33:58.971Z,1.92
2022-11-22T01:36:27.756Z,1.58
2022-11-22T01:38:55.220Z,1.58
2022-11-22T01:41:22.608Z,1.50
2022-11-22T01:43:49.774Z,1.52
2022-11-22T01:46:39.385Z,1.75
2022-11-22T01:49:26.858Z,1.42
2022-11-22T01:51:59.600Z,1.30
2022-11-22T01:54:31.605Z,1.45
2022-11-22T01:57:04.808Z,1.50
2022-11-22T01:59:35.573Z,1.35
2022-11-22T02:02:03.686Z,1.20
2022-11-22T02:04:32.756Z,1.90
2022-11-22T02:07:27.397Z,1.73
2022-11-22T02:09:55.222Z,1.27
2022-11-22T02:12:29.873Z,1.58
2022-11-22T02:14:57.083Z,1.23
2022-11-22T02:17:26.862Z,1.90
2022-11-22T02:19:54.792Z,1.35
2022-11-22T02:23:13.801Z,1.58
2022-11-22T02:25:59.740Z,1.70
2022-11-22T02:28:30.924Z,1.65
2022-11-22T02:30:58.124Z,1.52
2022-11-22T02:33:25.083Z,1.02
2022-11-22T02:35:52.449Z,1.60
2022-11-22T02:38:26.652Z,1.75
2022-11-22T02:40:57.124Z,1.67
2022-11-22T02:43:37.075Z,1.40
2022-11-22T02:46:10.664Z,1.60
2022-11-22T02:48:44.931Z,1.15
2022-11-22T02:51:17.100Z,1.73
2022-11-22T02:53:44.781Z,1.42
2022-11-22T02:56:11.921Z,1.30
2022-11-22T02:58:38.924Z,1.30
2022-11-22T03:01:06.039Z,1.83
2022-11-22T03:03:33.230Z,1.88
2022-11-22T03:06:02.275Z,1.58
2022-11-22T03:08:29.584Z,1.33
2022-11-22T03:11:00.168Z,1.40
2022-11-22T03:13:27.190Z,1.50
2022-11-22T03:15:54.181Z,1.40
2022-11-22T03:18:21.745Z,1.38
2022-11-22T03:20:48.686Z,1.75
2022-11-22T03:23:15.867Z,1.30
2022-11-22T03:25:43.063Z,1.50
2022-11-22T03:28:10.074Z,1.60
2022-11-22T03:30:41.450Z,1.15
2022-11-22T03:33:08.721Z,1.33
2022-11-22T03:35:35.684Z,1.10
2022-11-22T03:38:02.954Z,1.67
2022-11-22T03:40:29.986Z,1.40
2022-11-22T03:43:01.080Z,1.52
2022-11-22T03:45:31.495Z,1.90
2022-11-22T03:47:58.454Z,1.20
2022-11-22T03:50:25.797Z,1.13
2022-11-22T03:52:52.809Z,1.52
2022-11-22T03:55:19.874Z,1.23
2022-11-22T03:57:47.063Z,1.13
2022-11-22T04:00:15.097Z,1.60
2022-11-22T04:02:44.088Z,1.45
2022-11-22T04:05:11.405Z,1.83
2022-11-22T04:07:38.592Z,1.40
2022-11-22T04:10:06.854Z,1.33
2022-11-22T04:12:34.164Z,1.40
2022-11-22T04:15:07.294Z,1.50
2022-11-22T04:17:48.067Z,1.42
2022-11-22T04:20:45.067Z,1.60
2022-11-22T04:23:18.518Z,1.58
2022-11-22T04:25:52.026Z,1.50
2022-11-22T04:28:35.230Z,1.15
2022-11-22T04:31:29.165Z,1.38
2022-11-22T04:33:56.075Z,1.42
2022-11-22T04:36:23.008Z,1.80
2022-11-22T04:38:49.956Z,1.60
2022-11-22T04:41:16.874Z,2.00
2022-11-22T04:44:02.211Z,1.58
2022-11-22T04:46:31.347Z,1.60
2022-11-22T04:48:58.272Z,1.33
2022-11-22T04:51:43.566Z,1.67
2022-11-22T04:54:10.525Z,1.27
2022-11-22T04:56:37.507Z,1.25
2022-11-22T04:59:04.498Z,1.65
2022-11-22T05:01:31.559Z,1.25
2022-11-22T05:03:58.602Z,1.35
2022-11-22T05:06:25.603Z,1.50
2022-11-22T05:08:52.621Z,2.20
2022-11-22T05:11:19.725Z,1.85
2022-11-22T05:13:46.674Z,2.22
2022-11-22T05:16:15.436Z,1.70
2022-11-22T05:18:42.578Z,1.75
2022-11-22T05:21:14.431Z,1.65
2022-11-22T05:23:56.832Z,2.13
2022-11-22T05:26:32.882Z,1.20
2022-11-22T05:29:08.114Z,1.67
2022-11-22T05:31:37.581Z,1.58
2022-11-22T05:34:05.211Z,1.67
2022-11-22T05:36:34.358Z,1.55
2022-11-22T05:39:02.288Z,1.40
2022-11-22T05:41:29.267Z,1.40
2022-11-22T05:43:57.443Z,1.25
2022-11-22T05:46:28.382Z,1.20
2022-11-22T05:48:57.744Z,1.50
2022-11-22T05:51:32.497Z,1.02
2022-11-22T05:54:02.494Z,1.70
2022-11-22T05:56:29.466Z,1.48
2022-11-22T05:58:56.411Z,1.30
2022-11-22T06:01:24.806Z,1.80
2022-11-22T06:03:52.232Z,1.08
2022-11-22T06:06:20.555Z,1.60
2022-11-22T06:08:48.718Z,1.50
2022-11-22T06:11:25.530Z,1.60
2022-11-22T06:13:58.614Z,1.85
2022-11-22T06:16:26.922Z,1.48
2022-11-22T06:18:54.494Z,1.60
2022-11-22T06:21:24.587Z,1.35
2022-11-22T06:23:53.700Z,1.40
2022-11-22T06:26:22.220Z,1.83
2022-11-22T06:28:49.971Z,1.42
2022-11-22T06:31:25.980Z,1.67
2022-11-22T06:33:59.623Z,1.73
2022-11-22T06:36:32.133Z,1.52
2022-11-22T06:39:00.089Z,1.85
2022-11-22T06:41:33.857Z,1.48
2022-11-22T06:44:08.313Z,2.08
2022-11-22T06:46:36.758Z,2.13
2022-11-22T06:49:04.248Z,2.85
2022-11-22T06:51:32.430Z,2.20
2022-11-22T06:53:59.672Z,1.52
2022-11-22T06:56:41.350Z,1.98
2022-11-22T06:59:09.133Z,1.42
2022-11-22T07:01:37.500Z,1.50
2022-11-22T07:04:05.721Z,1.48
2022-11-22T07:06:38.577Z,1.52
2022-11-22T07:09:09.542Z,1.58
2022-11-22T07:11:37.096Z,1.50
2022-11-22T07:14:08.389Z,1.50
2022-11-22T07:16:38.262Z,1.40
2022-11-22T07:19:06.736Z,1.50
2022-11-22T07:21:34.938Z,1.80
2022-11-22T07:24:03.965Z,1.70
2022-11-22T07:26:30.920Z,1.63
2022-11-22T07:28:57.885Z,1.92
2022-11-22T07:31:26.036Z,2.38
2022-11-22T07:33:52.973Z,1.63
2022-11-22T07:36:22.069Z,1.67
2022-11-22T07:38:50.691Z,1.35
2022-11-22T07:41:18.986Z,1.85
2022-11-22T07:43:46.989Z,1.55
2022-11-22T07:46:32.966Z,1.70
2022-11-22T07:49:02.551Z,1.52
2022-11-22T07:51:30.366Z,1.08
2022-11-22T07:53:57.923Z,1.20
2022-11-22T07:56:24.903Z,1.92
2022-11-22T07:58:51.986Z,2.30
2022-11-22T08:01:20.873Z,2.20
2022-11-22T08:03:47.847Z,1.90
2022-11-22T08:06:15.657Z,1.55
2022-11-22T08:08:42.602Z,1.48
2022-11-22T08:11:10.888Z,1.63
2022-11-22T08:13:38.330Z,1.67
2022-11-22T08:16:10.736Z,1.35
2022-11-22T08:18:39.005Z,1.48
2022-11-22T08:21:13.043Z,1.58
2022-11-22T08:23:41.352Z,1.63
2022-11-22T08:26:12.391Z,1.15
2022-11-22T08:31:14.373Z,1.63
2022-11-22T08:33:41.571Z,1.48
2022-11-22T08:36:09.002Z,1.58
2022-11-22T08:38:36.126Z,1.35
2022-11-22T08:41:04.170Z,1.33
2022-11-22T08:43:31.939Z,1.75
2022-11-22T08:46:00.010Z,1.27
2022-11-22T08:48:28.385Z,1.42
2022-11-22T08:51:01.833Z,1.67
2022-11-22T08:53:32.343Z,1.52
2022-11-22T08:56:01.365Z,1.77
2022-11-22T08:58:35.859Z,1.70
2022-11-22T09:01:17.451Z,2.10
2022-11-22T09:03:45.544Z,1.33
2022-11-22T09:09:30.470Z,1.33
2022-11-22T09:11:53.537Z,0.98
2022-11-22T09:14:20.441Z,1.33
2022-11-22T09:16:47.378Z,1.20
2022-11-22T09:19:14.337Z,1.50
2022-11-22T09:21:41.269Z,1.05
2022-11-22T09:24:08.257Z,1.05
2022-11-22T09:26:35.309Z,0.98
2022-11-22T09:29:02.981Z,1.30
2022-11-22T09:31:31.754Z,1.48
2022-11-22T09:33:58.680Z,1.38
2022-11-22T09:36:26.584Z,1.45
2022-11-22T09:38:56.075Z,1.10
2022-11-22T09:42:33.736Z,1.50
2022-11-22T09:45:38.544Z,1.30
2022-11-22T09:48:27.913Z,1.23
2022-11-22T09:51:12.382Z,1.33
2022-11-22T09:54:16.057Z,1.88
2022-11-22T09:56:44.494Z,1.63
2022-11-22T09:59:15.435Z,1.38
2022-11-22T10:02:03.462Z,1.73
2022-11-22T10:04:51.696Z,1.60
2022-11-22T10:07:30.940Z,1.60
2022-11-22T10:10:20.922Z,2.05
2022-11-22T10:12:59.382Z,1.55
2022-11-22T10:15:50.032Z,1.92
2022-11-22T10:18:31.368Z,1.75
2022-11-22T10:20:58.347Z,1.60
2022-11-22T10:23:27.025Z,1.70
2022-11-22T10:26:00.184Z,1.40
2022-11-22T10:28:41.552Z,2.03
2022-11-22T10:31:30.317Z,1.45
2022-11-22T10:34:15.128Z,1.52
2022-11-22T10:36:57.005Z,2.28
2022-11-22T10:40:00.948Z,1.42
2022-11-22T10:42:49.768Z,1.60
2022-11-22T10:45:42.766Z,2.60
2022-11-22T10:48:33.784Z,2.47
2022-11-22T10:51:41.631Z,2.17
2022-11-22T10:54:42.188Z,2.10
2022-11-22T10:57:46.700Z,2.80
2022-11-22T11:00:25.045Z,3.15
2022-11-22T11:03:36.122Z,3.20
2022-11-22T11:06:56.900Z,2.25
2022-11-22T11:12:53.853Z,1.80
2022-11-22T11:16:03.906Z,1.92
2022-11-22T11:18:42.529Z,2.13
2022-11-22T11:21:14.163Z,2.10
2022-11-22T11:23:42.301Z,2.97
2022-11-22T11:26:25.449Z,2.60
2022-11-22T11:29:18.151Z,2.13
2022-11-22T11:31:51.532Z,2.03
2022-11-22T11:34:26.020Z,1.98
2022-11-22T11:36:57.045Z,1.92
2022-11-22T11:41:57.657Z,2.10
2022-11-22T11:44:29.195Z,2.80
2022-11-22T11:46:56.451Z,3.08
2022-11-22T11:49:30.362Z,3.45
2022-11-22T11:52:22.526Z,2.97
2022-11-22T11:54:56.924Z,3.05
2022-11-22T11:57:34.972Z,2.22
2022-11-22T12:00:18.970Z,2.40
2022-11-22T12:02:47.817Z,1.60
2022-11-22T12:05:14.681Z,1.73
2022-11-22T12:07:45.486Z,1.85
2022-11-22T12:11:01.188Z,2.03
2022-11-22T12:14:12.474Z,1.42
2022-11-22T12:16:56.542Z,1.30
2022-11-22T12:19:58.666Z,1.00
2022-11-22T12:23:02.820Z,1.88
2022-11-22T12:25:38.486Z,2.20
2022-11-22T12:28:27.394Z,2.17
2022-11-22T12:31:15.493Z,1.67
2022-11-22T12:33:47.757Z,1.50
2022-11-22T12:36:22.928Z,1.40
2022-11-22T12:38:53.309Z,1.50
2022-11-22T12:41:25.482Z,1.40
2022-11-22T12:44:06.957Z,1.48
2022-11-22T12:46:41.790Z,1.40
2022-11-22T12:49:41.529Z,1.50
2022-11-22T12:52:43.806Z,1.38
2022-11-22T12:55:35.145Z,1.30
2022-11-22T12:58:33.486Z,1.30
2022-11-22T13:01:27.013Z,1.48
2022-11-22T13:04:03.763Z,1.40
2022-11-22T13:06:56.948Z,1.10
2022-11-22T13:09:35.278Z,1.13
2022-11-22T13:12:16.589Z,1.23
2022-11-22T13:14:54.923Z,1.05
2022-11-22T13:17:30.002Z,1.30
2022-11-22T13:20:06.554Z,1.20
2022-11-22T13:22:59.709Z,0.80
2022-11-22T13:25:58.418Z,1.63
2022-11-22T13:28:32.338Z,2.00
2022-11-22T13:31:11.464Z,1.38
2022-11-22T13:33:57.745Z,1.08
2022-11-22T13:36:27.669Z,1.23
2022-11-22T13:39:04.482Z,1.48
2022-11-22T13:41:39.676Z,1.20
2022-11-22T13:44:30.971Z,1.02
2022-11-22T13:47:25.337Z,1.25
2022-11-22T13:49:53.856Z,0.77
2022-11-22T13:52:20.690Z,1.27
2022-11-22T13:54:47.628Z,1.30
2022-11-22T13:57:35.613Z,1.55
2022-11-22T14:00:14.623Z,1.60
2022-11-22T14:03:13.598Z,1.52
2022-11-22T14:05:51.545Z,1.00
2022-11-22T14:08:40.241Z,1.05
2022-11-22T14:11:39.057Z,0.68
2022-11-22T14:14:52.309Z,1.10
2022-11-22T14:18:08.089Z,0.90
2022-11-22T14:21:00.161Z,0.90
2022-11-22T14:23:57.598Z,1.05
2022-11-22T14:27:08.090Z,1.00
2022-11-22T14:30:51.719Z,0.80
2022-11-22T14:33:25.815Z,0.85
2022-11-22T14:36:07.872Z,0.80
2022-11-22T14:38:38.590Z,0.82
2022-11-22T14:41:27.495Z,0.85
2022-11-22T14:44:18.413Z,0.82
2022-11-22T14:46:56.955Z,1.00
2022-11-22T14:49:48.022Z,0.80
2022-11-22T14:52:25.591Z,0.90
2022-11-22T14:55:02.582Z,0.80
2022-11-22T14:57:33.474Z,0.75
2022-11-22T15:00:17.820Z,0.85
2022-11-22T15:03:36.412Z,0.70
2022-11-22T15:09:12.136Z,0.80
2022-11-22T15:09:52.459Z,0.70
2022-11-22T15:12:58.428Z,0.52
2022-11-22T15:57:35.735Z,1.05
2022-11-22T16:00:08.774Z,1.30
2022-11-22T16:02:47.233Z,0.70
2022-11-22T16:06:10.357Z,0.70
2022-11-22T16:08:04.668Z,0.70
2022-11-22T16:10:40.077Z,0.93
2022-11-22T16:13:34.308Z,1.33
2022-11-22T16:16:07.328Z,1.05
2022-11-22T16:18:34.365Z,1.00
2022-11-22T16:21:12.277Z,0.95
2022-11-22T16:23:41.130Z,0.95
2022-11-22T16:26:31.108Z,0.68
2022-11-22T16:29:32.307Z,0.95
2022-11-22T16:32:01.346Z,1.00
2022-11-22T16:34:28.287Z,1.02
2022-11-22T16:36:55.236Z,1.30
2022-11-22T16:39:22.800Z,1.50
2022-11-22T16:41:50.024Z,0.80
2022-11-22T16:44:19.604Z,1.10
2022-11-22T16:46:47.572Z,0.70
2022-11-22T16:49:19.564Z,0.90
2022-11-22T16:51:48.512Z,1.10
2022-11-22T16:54:20.813Z,0.80
2022-11-22T16:56:48.001Z,1.02
2022-11-22T16:59:15.278Z,1.00
2022-11-22T17:01:43.734Z,0.98
2022-11-22T17:04:26.112Z,1.20
2022-11-22T17:06:53.834Z,1.48
2022-11-22T17:09:20.941Z,1.58
2022-11-22T17:11:48.045Z,1.13
2022-11-22T17:14:16.881Z,1.00
2022-11-22T17:16:45.820Z,1.33
2022-11-22T17:22:00.798Z,0.73
2022-11-22T17:24:27.881Z,1.00
2022-11-22T17:26:54.896Z,0.88
2022-11-22T17:29:49.162Z,1.10
2022-11-22T17:32:15.107Z,0.82
2022-11-22T17:34:42.029Z,1.42
2022-11-22T17:37:12.680Z,0.95
2022-11-22T17:39:40.115Z,1.27
2022-11-22T17:42:07.123Z,1.45
2022-11-22T17:44:34.103Z,1.50
2022-11-22T17:47:01.390Z,1.70
2022-11-22T17:49:28.992Z,1.67
2022-11-22T17:51:56.270Z,1.70
2022-11-22T17:54:23.212Z,1.50
2022-11-22T17:56:50.310Z,1.25
2022-11-22T17:59:17.613Z,1.13
2022-11-22T18:01:44.789Z,1.10
2022-11-22T18:04:11.791Z,1.50
2022-11-22T18:06:38.763Z,1.67
2022-11-22T18:09:05.762Z,1.60
2022-11-22T18:11:32.857Z,1.65
2022-11-22T18:13:59.779Z,1.30
2022-11-22T18:16:28.816Z,1.60
2022-11-22T18:18:58.051Z,2.33
2022-11-22T18:21:30.901Z,1.85
2022-11-22T18:24:01.792Z,1.60
2022-11-22T18:29:40.733Z,1.25
2022-11-22T18:31:55.644Z,1.67
2022-11-22T18:34:23.136Z,1.80
2022-11-22T18:37:01.897Z,2.45
2022-11-22T18:39:36.849Z,2.20
2022-11-22T18:42:07.656Z,2.13
2022-11-22T18:44:34.922Z,1.50
2022-11-22T18:47:01.893Z,1.73
2022-11-22T18:49:29.218Z,1.38
2022-11-22T18:51:56.633Z,1.30
2022-11-22T18:54:23.984Z,1.23
2022-11-22T18:56:51.556Z,1.40
2022-11-22T18:59:19.070Z,1.20
2022-11-22T19:01:46.425Z,1.27
2022-11-22T19:04:15.131Z,1.48
2022-11-22T19:06:42.838Z,1.25
2022-11-22T19:09:10.661Z,1.60
2022-11-22T19:11:37.880Z,1.67
2022-11-22T19:14:05.474Z,1.50
2022-11-22T19:16:32.590Z,1.90
2022-11-22T19:19:00.060Z,1.40
2022-11-22T19:21:28.747Z,1.20
2022-11-22T19:23:57.202Z,1.45
2022-11-22T19:26:26.890Z,1.40
2022-11-22T19:28:56.009Z,1.65
2022-11-22T19:31:29.493Z,1.75
2022-11-22T19:33:59.914Z,1.67
2022-11-22T19:36:33.378Z,2.08
2022-11-22T19:39:03.359Z,1.83
2022-11-22T19:41:31.003Z,1.50
2022-11-22T19:43:58.510Z,1.20
2022-11-22T19:46:25.965Z,1.30
2022-11-22T19:48:56.262Z,1.70
2022-11-22T19:51:24.732Z,1.90
2022-11-22T19:53:59.927Z,1.67
2022-11-22T19:56:30.517Z,1.95
2022-11-22T19:58:59.744Z,1.50
2022-11-22T20:01:29.831Z,1.42
2022-11-22T20:04:01.361Z,1.40
2022-11-22T20:06:29.592Z,1.63
2022-11-22T20:09:09.778Z,1.33
2022-11-22T20:11:40.982Z,1.70
2022-11-22T20:16:41.035Z,1.98
2022-11-22T20:19:09.690Z,2.05
2022-11-22T20:21:37.885Z,1.85
2022-11-22T20:24:06.644Z,1.60
2022-11-22T20:26:34.364Z,1.85
2022-11-22T20:29:08.057Z,1.77
2022-11-22T20:31:37.215Z,2.00
2022-11-22T20:34:05.012Z,1.80
2022-11-22T20:36:34.291Z,1.52
2022-11-22T20:39:05.531Z,1.65
2022-11-22T20:41:36.183Z,1.73
2022-11-22T20:44:03.276Z,1.50
2022-11-22T20:46:30.626Z,1.70
2022-11-22T20:48:58.143Z,1.85
2022-11-22T20:51:28.612Z,1.80
2022-11-22T20:53:56.287Z,2.08
2022-11-22T20:56:23.929Z,1.45
2022-11-22T20:58:50.950Z,1.90
2022-11-22T21:01:24.267Z,1.50
2022-11-22T21:03:53.063Z,1.67
2022-11-22T21:06:22.797Z,1.88
2022-11-22T21:08:50.482Z,1.63
2022-11-22T21:11:27.556Z,1.60
2022-11-22T21:13:56.516Z,1.77
2022-11-22T21:16:27.400Z,1.60
2022-11-22T21:19:04.918Z,1.85
2022-11-22T21:21:35.594Z,1.48
2022-11-22T21:24:05.239Z,1.65
2022-11-22T21:26:33.434Z,1.63
2022-11-22T21:29:01.134Z,1.50
2022-11-22T21:31:28.324Z,1.70
2022-11-22T21:33:55.385Z,2.03
2022-11-22T21:36:22.741Z,1.50
2022-11-22T21:38:49.730Z,1.83
2022-11-22T21:44:08.905Z,1.25
2022-11-22T21:46:35.991Z,1.27
2022-11-22T21:49:02.964Z,1.30
2022-11-22T21:51:30.040Z,1.60
2022-11-22T21:53:58.868Z,2.05
2022-11-22T21:56:26.787Z,1.35
2022-11-22T21:58:53.835Z,1.25
2022-11-22T22:01:20.865Z,1.63
2022-11-22T22:03:47.878Z,1.63
2022-11-22T22:06:14.934Z,2.50
2022-11-22T22:08:41.951Z,1.65
2022-11-22T22:11:08.911Z,1.92
2022-11-22T22:13:36.002Z,1.20
2022-11-22T22:16:12.709Z,2.00
2022-11-22T22:18:39.969Z,1.63
2022-11-22T22:21:09.427Z,1.70
2022-11-22T22:23:38.789Z,1.52
2022-11-22T22:26:08.584Z,2.03
2022-11-22T22:28:37.433Z,1.90
2022-11-22T22:31:28.356Z,1.42
2022-11-22T22:33:57.357Z,1.70
2022-11-22T22:36:26.322Z,1.45
2022-11-22T22:38:54.955Z,1.40
2022-11-22T22:41:22.158Z,1.42
2022-11-22T22:43:49.606Z,1.55
2022-11-22T22:46:20.376Z,1.35
2022-11-22T22:48:48.959Z,1.50
2022-11-22T22:51:19.754Z,1.05
2022-11-22T22:53:47.522Z,1.80
2022-11-22T22:56:17.737Z,1.30
2022-11-22T22:58:44.869Z,1.30
2022-11-22T23:01:21.543Z,1.38
2022-11-22T23:03:54.883Z,1.65
2022-11-22T23:06:23.442Z,1.65
2022-11-22T23:08:52.051Z,1.38
2022-11-22T23:11:43.913Z,1.30
2022-11-22T23:14:13.969Z,1.10
2022-11-22T23:16:41.472Z,1.75
2022-11-22T23:19:09.230Z,1.35
2022-11-22T23:21:36.790Z,1.48
2022-11-22T23:24:04.476Z,1.70
2022-11-22T23:26:31.710Z,1.42
2022-11-22T23:28:59.687Z,1.48
2022-11-22T23:31:27.463Z,1.00
2022-11-22T23:33:54.747Z,1.50
2022-11-22T23:36:22.888Z,1.63
2022-11-22T23:38:50.074Z,1.20
2022-11-22T23:41:23.330Z,1.35
2022-11-22T23:43:55.923Z,0.95
2022-11-22T23:46:26.777Z,1.30
2022-11-22T23:48:56.537Z,1.17
2022-11-22T23:51:24.977Z,1.48
2022-11-22T23:54:00.012Z,1.83
2022-11-22T23:56:28.639Z,2.22
2022-11-22T23:58:57.678Z,1.88
